createdAt,value
2023-04-27T00:01:12.901Z,3.85
2023-04-27T00:03:39.942Z,3.61
2023-04-27T00:06:06.966Z,3.59
2023-04-27T00:08:33.737Z,3.03
2023-04-27T00:11:00.659Z,2.00
2023-04-27T00:13:27.476Z,3.13
2023-04-27T00:15:54.182Z,2.01
2023-04-27T00:18:20.978Z,3.12
2023-04-27T00:20:47.832Z,3.01
2023-04-27T00:23:14.505Z,2.86
2023-04-27T00:25:41.401Z,2.91
2023-04-27T00:28:08.220Z,1.98
2023-04-27T00:30:35.932Z,2.82
2023-04-27T00:33:02.579Z,2.82
2023-04-27T00:35:29.360Z,2.21
2023-04-27T00:37:56.109Z,2.13
2023-04-27T00:40:22.806Z,2.83
2023-04-27T00:42:49.398Z,2.17
2023-04-27T00:45:16.024Z,2.96
2023-04-27T00:47:43.025Z,2.64
2023-04-27T00:50:10.752Z,2.76
2023-04-27T00:52:37.619Z,2.39
2023-04-27T00:55:05.110Z,2.19
2023-04-27T00:57:32.380Z,2.11
2023-04-27T01:00:02.377Z,2.27
2023-04-27T01:02:29.770Z,2.37
2023-04-27T01:04:56.554Z,1.90
2023-04-27T01:07:26.833Z,2.48
2023-04-27T01:09:53.496Z,1.35
2023-04-27T01:12:20.090Z,2.50
2023-04-27T01:14:46.765Z,2.60
2023-04-27T01:17:14.273Z,1.14
2023-04-27T01:19:41.246Z,2.31
2023-04-27T01:22:08.005Z,2.37
2023-04-27T01:24:34.678Z,1.94
2023-04-27T01:27:02.638Z,2.35
2023-04-27T01:29:29.407Z,2.35
2023-04-27T01:31:56.301Z,1.17
2023-04-27T01:34:23.036Z,2.23
2023-04-27T01:36:49.712Z,2.59
2023-04-27T01:39:16.466Z,2.55
2023-04-27T01:41:43.112Z,0.68
2023-04-27T01:44:09.792Z,1.87
2023-04-27T01:46:36.450Z,0.68
2023-04-27T01:49:03.261Z,2.38
2023-04-27T01:51:29.858Z,1.55
2023-04-27T01:53:56.536Z,1.94
2023-04-27T01:56:23.171Z,1.20
2023-04-27T01:58:49.806Z,1.58
2023-04-27T02:01:16.426Z,1.49
2023-04-27T02:03:43.300Z,1.76
2023-04-27T02:06:10.093Z,-0.03
2023-04-27T02:08:36.868Z,0.14
2023-04-27T02:11:03.534Z,1.72
2023-04-27T02:13:30.144Z,1.14
2023-04-27T02:15:56.745Z,1.06
2023-04-27T02:18:24.467Z,-0.22
2023-04-27T02:20:51.357Z,1.51
2023-04-27T02:23:18.016Z,1.12
2023-04-27T02:25:46.846Z,1.02
2023-04-27T02:28:14.169Z,1.41
2023-04-27T02:30:41.361Z,1.00
2023-04-27T02:33:08.032Z,1.54
2023-04-27T02:35:34.860Z,0.93
2023-04-27T02:38:01.676Z,1.60
2023-04-27T02:40:28.496Z,1.92
2023-04-27T02:42:55.179Z,1.39
2023-04-27T02:45:21.767Z,1.72
2023-04-27T02:47:49.103Z,1.12
2023-04-27T02:50:15.847Z,1.54
2023-04-27T02:52:42.502Z,1.29
2023-04-27T02:55:09.457Z,1.80
2023-04-27T02:57:36.102Z,1.45
2023-04-27T03:00:05.137Z,2.07
2023-04-27T03:02:32.210Z,1.96
2023-04-27T03:04:59.392Z,1.99
2023-04-27T03:07:26.092Z,2.30
2023-04-27T03:09:52.702Z,2.30
2023-04-27T03:12:19.316Z,1.69
2023-04-27T03:14:45.897Z,2.39
2023-04-27T03:17:12.491Z,1.67
2023-04-27T03:19:39.094Z,0.56
2023-04-27T03:22:05.700Z,1.99
2023-04-27T03:24:33.338Z,2.47
2023-04-27T03:27:00.091Z,2.57
2023-04-27T03:29:26.914Z,2.12
2023-04-27T03:31:53.628Z,2.25
2023-04-27T03:34:21.957Z,2.49
2023-04-27T03:36:48.567Z,2.19
2023-04-27T03:39:15.519Z,1.86
2023-04-27T03:41:42.658Z,2.11
2023-04-27T03:44:09.864Z,2.00
2023-04-27T03:46:36.521Z,1.99
2023-04-27T03:49:03.364Z,2.37
2023-04-27T03:51:32.255Z,2.39
2023-04-27T03:53:59.270Z,2.54
2023-04-27T03:56:26.125Z,2.05
2023-04-27T03:58:52.739Z,2.63
2023-04-27T04:01:19.394Z,2.63
2023-04-27T04:03:47.801Z,1.64
2023-04-27T04:06:14.638Z,1.59
2023-04-27T04:08:41.434Z,2.45
2023-04-27T04:11:08.267Z,1.15
2023-04-27T04:13:36.104Z,2.29
2023-04-27T04:16:07.222Z,2.76
2023-04-27T04:18:34.301Z,2.67
2023-04-27T04:21:01.131Z,2.38
2023-04-27T04:23:27.921Z,2.61
2023-04-27T04:25:56.893Z,2.69
2023-04-27T04:28:23.921Z,2.96
2023-04-27T04:30:51.109Z,2.81
2023-04-27T04:33:17.877Z,3.01
2023-04-27T04:35:44.540Z,2.90
2023-04-27T04:38:11.296Z,2.76
2023-04-27T04:40:43.773Z,3.02
2023-04-27T04:43:12.303Z,2.54
2023-04-27T04:45:38.944Z,3.13
2023-04-27T04:48:05.965Z,3.19
2023-04-27T04:50:32.726Z,3.24
2023-04-27T04:52:59.330Z,3.42
2023-04-27T04:55:28.333Z,3.48
2023-04-27T04:57:54.985Z,3.28
2023-04-27T05:00:22.449Z,2.91
2023-04-27T05:02:49.533Z,3.46
2023-04-27T05:05:16.728Z,3.27
2023-04-27T05:07:43.460Z,3.32
2023-04-27T05:10:10.223Z,3.79
2023-04-27T05:12:36.797Z,2.64
2023-04-27T05:15:04.175Z,3.65
2023-04-27T05:17:31.309Z,3.83
2023-04-27T05:19:58.317Z,3.79
2023-04-27T05:22:24.994Z,3.22
2023-04-27T05:24:52.251Z,3.70
2023-04-27T05:27:18.852Z,2.62
2023-04-27T05:29:45.439Z,3.87
2023-04-27T05:32:12.063Z,4.29
2023-04-27T05:34:38.748Z,3.96
2023-04-27T05:37:05.427Z,3.66
2023-04-27T05:39:32.139Z,3.88
2023-04-27T05:41:58.946Z,4.67
2023-04-27T05:44:28.521Z,4.32
2023-04-27T05:46:56.252Z,4.59
2023-04-27T05:49:23.468Z,4.40
2023-04-27T05:51:50.193Z,4.74
2023-04-27T05:54:16.958Z,4.66
2023-04-27T05:56:43.634Z,4.65
2023-04-27T05:59:10.309Z,5.11
2023-04-27T06:01:37.152Z,5.64
2023-04-27T06:04:04.258Z,4.63
2023-04-27T06:06:32.655Z,5.98
2023-04-27T06:08:59.257Z,5.89
2023-04-27T06:11:26.020Z,6.25
2023-04-27T06:13:52.666Z,6.67
2023-04-27T06:16:22.099Z,6.92
2023-04-27T06:18:50.640Z,6.94
2023-04-27T06:21:17.580Z,7.39
2023-04-27T06:23:44.207Z,7.24
2023-04-27T06:26:11.512Z,8.37
2023-04-27T06:28:38.307Z,8.54
2023-04-27T06:31:05.654Z,8.96
2023-04-27T06:33:32.536Z,7.48
2023-04-27T06:35:59.157Z,9.62
2023-04-27T06:38:25.794Z,9.66
2023-04-27T06:40:53.264Z,9.51
2023-04-27T06:43:19.978Z,10.04
2023-04-27T06:45:46.739Z,10.48
2023-04-27T06:48:13.451Z,10.46
2023-04-27T06:50:40.128Z,11.12
2023-04-27T06:53:06.769Z,10.94
2023-04-27T06:55:33.386Z,11.10
2023-04-27T06:58:00.023Z,10.80
2023-04-27T07:00:27.281Z,11.00
2023-04-27T07:02:54.063Z,10.99
2023-04-27T07:05:20.893Z,11.09
2023-04-27T07:07:47.571Z,11.47
2023-04-27T07:10:14.236Z,11.33
2023-04-27T07:12:41.809Z,11.15
2023-04-27T07:15:09.649Z,12.16
2023-04-27T07:17:36.400Z,12.14
2023-04-27T07:20:04.634Z,12.75
2023-04-27T07:22:31.233Z,11.33
2023-04-27T07:24:57.970Z,12.65
2023-04-27T07:27:26.530Z,12.39
2023-04-27T07:29:53.465Z,13.09
2023-04-27T07:32:20.224Z,12.85
2023-04-27T07:34:53.547Z,12.40
2023-04-27T07:37:21.217Z,12.82
2023-04-27T07:39:49.050Z,12.00
2023-04-27T07:42:16.099Z,11.79
2023-04-27T07:44:43.040Z,11.67
2023-04-27T07:47:09.955Z,11.44
2023-04-27T07:49:37.506Z,10.51
2023-04-27T07:52:04.833Z,10.79
2023-04-27T07:54:31.705Z,10.67
2023-04-27T07:56:58.640Z,10.48
2023-04-27T07:59:25.256Z,10.90
2023-04-27T08:01:51.949Z,10.68
2023-04-27T08:04:24.309Z,10.70
2023-04-27T08:06:51.613Z,11.48
2023-04-27T08:09:18.625Z,10.82
2023-04-27T08:11:45.256Z,12.11
2023-04-27T08:14:13.917Z,12.22
2023-04-27T08:17:11.848Z,12.89
2023-04-27T08:19:38.594Z,12.74
2023-04-27T08:22:05.306Z,12.25
2023-04-27T08:24:32.479Z,11.90
2023-04-27T08:26:59.100Z,12.05
2023-04-27T08:29:28.478Z,11.86
2023-04-27T08:31:58.687Z,10.22
2023-04-27T08:34:25.795Z,11.29
2023-04-27T08:36:52.500Z,11.51
2023-04-27T08:39:19.191Z,11.55
2023-04-27T08:41:46.465Z,12.20
2023-04-27T08:44:13.146Z,12.00
2023-04-27T08:46:43.008Z,12.59
2023-04-27T08:49:10.132Z,11.36
2023-04-27T08:51:36.836Z,12.37
2023-04-27T08:54:03.514Z,12.96
2023-04-27T08:56:30.503Z,12.24
2023-04-27T08:58:57.712Z,11.38
2023-04-27T09:01:25.272Z,12.10
2023-04-27T09:04:02.363Z,11.41
2023-04-27T09:06:31.550Z,11.41
2023-04-27T09:08:58.333Z,11.78
2023-04-27T09:11:35.186Z,11.78
2023-04-27T09:14:03.606Z,11.33
2023-04-27T09:16:30.844Z,11.17
2023-04-27T09:18:58.336Z,11.13
2023-04-27T09:21:25.990Z,11.20
2023-04-27T09:23:52.652Z,10.44
2023-04-27T09:26:21.724Z,9.25
2023-04-27T09:28:49.925Z,10.54
2023-04-27T09:31:16.587Z,10.83
2023-04-27T09:33:44.058Z,10.79
2023-04-27T09:36:10.804Z,10.40
2023-04-27T09:38:37.495Z,11.05
2023-04-27T09:41:04.131Z,10.24
2023-04-27T09:43:31.568Z,10.47
2023-04-27T09:45:58.669Z,10.43
2023-04-27T09:48:25.770Z,10.22
2023-04-27T09:50:52.734Z,10.64
2023-04-27T09:53:49.568Z,11.03
2023-04-27T09:56:57.732Z,11.23
2023-04-27T09:59:47.438Z,11.12
2023-04-27T10:02:24.892Z,11.10
2023-04-27T10:05:04.519Z,11.19
2023-04-27T10:07:31.656Z,11.23
2023-04-27T10:10:01.749Z,9.91
2023-04-27T10:12:33.213Z,11.36
2023-04-27T10:15:00.728Z,9.47
2023-04-27T10:17:34.658Z,10.71
2023-04-27T10:20:02.693Z,11.09
2023-04-27T10:22:50.113Z,11.31
2023-04-27T10:25:23.823Z,11.66
2023-04-27T10:27:59.010Z,11.00
2023-04-27T10:30:27.444Z,11.44
2023-04-27T10:32:56.038Z,11.27
2023-04-27T10:35:33.097Z,11.51
2023-04-27T10:38:10.491Z,11.17
2023-04-27T10:40:38.397Z,11.16
2023-04-27T10:43:12.145Z,10.97
2023-04-27T10:45:39.134Z,9.24
2023-04-27T10:48:06.171Z,11.06
2023-04-27T10:50:32.941Z,11.33
2023-04-27T10:53:04.418Z,11.13
2023-04-27T10:55:31.554Z,11.39
2023-04-27T10:57:58.388Z,11.16
2023-04-27T11:00:36.743Z,11.23
2023-04-27T11:03:18.295Z,11.05
2023-04-27T11:05:46.185Z,11.85
2023-04-27T11:08:16.793Z,9.63
2023-04-27T11:10:46.437Z,11.48
2023-04-27T11:13:23.888Z,11.63
2023-04-27T11:15:58.116Z,11.08
2023-04-27T11:18:26.625Z,11.40
2023-04-27T11:20:54.366Z,11.22
2023-04-27T11:23:36.876Z,11.74
2023-04-27T11:26:17.277Z,11.27
2023-04-27T11:28:44.474Z,10.94
2023-04-27T11:31:11.673Z,11.20
2023-04-27T11:33:40.100Z,11.03
2023-04-27T11:36:19.613Z,11.83
2023-04-27T11:38:46.390Z,11.84
2023-04-27T11:41:13.173Z,11.66
2023-04-27T11:43:46.274Z,11.74
2023-04-27T11:46:13.404Z,11.87
2023-04-27T11:48:40.407Z,11.92
2023-04-27T11:51:08.084Z,11.85
2023-04-27T11:53:35.664Z,12.46
2023-04-27T11:56:05.589Z,12.25
2023-04-27T11:58:36.283Z,12.43
2023-04-27T12:01:06.628Z,12.01
2023-04-27T12:03:33.527Z,11.28
2023-04-27T12:06:12.059Z,11.14
2023-04-27T12:08:47.126Z,12.28
2023-04-27T12:11:13.766Z,10.74
2023-04-27T12:13:40.779Z,11.28
2023-04-27T12:16:07.576Z,11.65
2023-04-27T12:18:34.514Z,10.51
2023-04-27T12:21:03.166Z,11.96
2023-04-27T12:23:30.171Z,10.54
2023-04-27T12:25:56.819Z,12.31
2023-04-27T12:28:23.534Z,12.06
2023-04-27T12:30:50.525Z,12.30
2023-04-27T12:33:17.321Z,12.17
2023-04-27T12:35:44.068Z,12.15
2023-04-27T12:38:10.664Z,12.39
2023-04-27T12:40:37.667Z,12.29
2023-04-27T12:43:04.442Z,12.33
2023-04-27T12:45:31.439Z,11.64
2023-04-27T12:48:03.847Z,11.54
2023-04-27T12:50:34.468Z,11.99
2023-04-27T12:53:01.352Z,12.19
2023-04-27T12:57:58.309Z,11.41
2023-04-27T13:00:25.416Z,11.89
2023-04-27T13:02:52.761Z,10.33
2023-04-27T13:05:20.054Z,11.69
2023-04-27T13:07:46.859Z,12.04
2023-04-27T13:10:13.598Z,11.38
2023-04-27T13:12:40.683Z,11.97
2023-04-27T13:15:08.020Z,11.03
2023-04-27T13:17:34.664Z,12.31
2023-04-27T13:20:01.377Z,11.79
2023-04-27T13:22:28.285Z,12.12
2023-04-27T13:24:55.075Z,11.22
2023-04-27T13:27:22.543Z,11.30
2023-04-27T13:29:49.689Z,10.22
2023-04-27T13:32:16.301Z,11.26
2023-04-27T13:34:42.997Z,10.36
2023-04-27T13:37:09.715Z,11.75
2023-04-27T13:39:37.704Z,11.61
2023-04-27T13:42:04.604Z,11.90
2023-04-27T13:44:31.896Z,11.81
2023-04-27T13:46:58.704Z,11.81
2023-04-27T13:49:26.021Z,11.80
2023-04-27T13:51:52.778Z,11.78
2023-04-27T13:54:20.597Z,10.41
2023-04-27T13:56:47.973Z,11.61
2023-04-27T13:59:16.223Z,11.81
2023-04-27T14:01:43.025Z,11.39
2023-04-27T14:04:10.122Z,10.11
2023-04-27T14:06:37.116Z,11.50
2023-04-27T14:09:04.058Z,11.89
2023-04-27T14:11:30.844Z,11.84
2023-04-27T14:13:58.242Z,9.92
2023-04-27T14:16:24.934Z,11.65
2023-04-27T14:18:52.473Z,11.49
2023-04-27T14:21:19.100Z,11.34
2023-04-27T14:23:45.689Z,10.54
2023-04-27T14:26:12.405Z,11.20
2023-04-27T14:28:39.297Z,11.57
2023-04-27T14:31:06.140Z,11.75
2023-04-27T14:33:32.916Z,10.29
2023-04-27T14:35:59.739Z,11.08
2023-04-27T14:38:26.368Z,11.42
2023-04-27T14:40:53.105Z,11.26
2023-04-27T14:43:19.817Z,11.62
2023-04-27T14:45:54.057Z,11.96
2023-04-27T14:48:23.913Z,11.29
2023-04-27T14:50:50.586Z,11.25
2023-04-27T14:53:17.322Z,11.03
2023-04-27T14:55:45.904Z,11.16
2023-04-27T14:58:23.707Z,11.16
2023-04-27T15:00:51.229Z,10.19
2023-04-27T15:03:18.134Z,10.46
2023-04-27T15:05:44.850Z,10.34
2023-04-27T15:08:11.826Z,9.09
2023-04-27T15:10:38.500Z,10.30
2023-04-27T15:13:05.151Z,10.40
2023-04-27T15:15:31.777Z,10.76
2023-04-27T15:17:58.934Z,10.13
2023-04-27T15:20:25.700Z,10.97
2023-04-27T15:22:52.367Z,10.83
2023-04-27T15:25:19.202Z,10.60
2023-04-27T15:27:45.843Z,10.05
2023-04-27T15:30:14.108Z,9.66
2023-04-27T15:32:41.025Z,10.20
2023-04-27T15:35:08.378Z,10.33
2023-04-27T15:37:35.771Z,10.27
2023-04-27T15:40:07.503Z,10.50
2023-04-27T15:42:34.416Z,10.32
2023-04-27T15:45:01.088Z,10.61
2023-04-27T15:47:27.834Z,10.25
2023-04-27T15:49:58.024Z,10.57
2023-04-27T15:52:26.885Z,10.76
2023-04-27T15:54:53.737Z,11.12
2023-04-27T15:57:20.632Z,10.77
2023-04-27T15:59:47.610Z,11.02
2023-04-27T16:02:14.429Z,10.74
2023-04-27T16:04:41.159Z,10.62
2023-04-27T16:07:08.228Z,10.57
2023-04-27T16:09:35.071Z,9.97
2023-04-27T16:12:03.826Z,9.86
2023-04-27T16:14:30.835Z,10.46
2023-04-27T16:17:02.224Z,10.22
2023-04-27T16:19:28.997Z,10.20
2023-04-27T16:21:55.947Z,10.25
2023-04-27T16:24:22.590Z,8.59
2023-04-27T16:26:49.243Z,9.24
2023-04-27T16:29:16.417Z,9.84
2023-04-27T16:31:44.967Z,9.83
2023-04-27T16:34:41.642Z,10.27
2023-04-27T16:37:08.299Z,9.93
2023-04-27T16:39:34.923Z,10.05
2023-04-27T16:42:01.586Z,10.00
2023-04-27T16:44:28.507Z,9.77
2023-04-27T16:46:55.126Z,9.78
2023-04-27T16:49:21.869Z,9.69
2023-04-27T16:51:48.668Z,9.65
2023-04-27T16:54:18.117Z,9.84
2023-04-27T16:56:45.923Z,9.16
2023-04-27T16:59:12.969Z,9.91
2023-04-27T17:01:40.428Z,9.34
2023-04-27T17:04:07.357Z,9.58
2023-04-27T17:06:34.802Z,9.47
2023-04-27T17:09:01.750Z,9.22
2023-04-27T17:11:28.391Z,9.49
2023-04-27T17:13:55.166Z,9.58
2023-04-27T17:16:22.075Z,9.39
2023-04-27T17:18:48.994Z,9.07
2023-04-27T17:21:16.835Z,8.99
2023-04-27T17:23:46.459Z,8.76
2023-04-27T17:26:15.953Z,8.51
2023-04-27T17:28:42.635Z,8.10
2023-04-27T17:31:09.304Z,8.26
2023-04-27T17:33:36.209Z,8.17
2023-04-27T17:36:02.867Z,7.98
2023-04-27T17:38:29.459Z,6.62
2023-04-27T17:40:56.363Z,7.60
2023-04-27T17:43:22.979Z,6.24
2023-04-27T17:45:49.721Z,7.78
2023-04-27T17:48:17.039Z,7.92
2023-04-27T17:50:43.683Z,7.55
2023-04-27T17:53:10.481Z,7.79
2023-04-27T17:55:37.079Z,6.83
2023-04-27T17:58:04.149Z,6.59
2023-04-27T18:00:31.025Z,6.57
2023-04-27T18:02:57.990Z,6.86
2023-04-27T18:05:24.825Z,7.19
2023-04-27T18:07:51.583Z,6.73
2023-04-27T18:10:18.229Z,5.80
2023-04-27T18:12:45.137Z,6.95
2023-04-27T18:15:12.021Z,6.38
2023-04-27T18:17:38.857Z,6.88
2023-04-27T18:20:09.620Z,6.68
2023-04-27T18:22:37.878Z,6.03
2023-04-27T18:25:04.821Z,6.17
2023-04-27T18:27:33.066Z,6.27
2023-04-27T18:29:59.932Z,6.37
2023-04-27T18:32:26.743Z,6.18
2023-04-27T18:34:53.971Z,6.18
2023-04-27T18:37:20.574Z,4.68
2023-04-27T18:39:47.269Z,5.50
2023-04-27T18:42:14.320Z,3.73
2023-04-27T18:44:41.139Z,4.99
2023-04-27T18:47:07.966Z,5.13
2023-04-27T18:49:34.597Z,5.04
2023-04-27T18:52:01.250Z,5.29
2023-04-27T18:54:27.867Z,5.16
2023-04-27T18:56:54.490Z,5.13
2023-04-27T18:59:21.202Z,5.09
2023-04-27T19:01:47.885Z,5.05
2023-04-27T19:04:14.777Z,5.03
2023-04-27T19:06:41.564Z,5.30
2023-04-27T19:09:09.308Z,4.76
2023-04-27T19:11:36.085Z,5.08
2023-04-27T19:14:02.697Z,4.51
2023-04-27T19:16:29.408Z,4.82
2023-04-27T19:18:56.167Z,4.58
2023-04-27T19:21:22.950Z,3.96
2023-04-27T19:23:49.775Z,4.58
2023-04-27T19:26:16.488Z,2.82
2023-04-27T19:28:43.215Z,4.08
2023-04-27T19:31:10.442Z,4.41
2023-04-27T19:33:37.325Z,4.43
2023-04-27T19:36:04.377Z,4.11
2023-04-27T19:38:31.038Z,4.00
2023-04-27T19:40:57.766Z,3.98
2023-04-27T19:43:24.528Z,3.77
2023-04-27T19:45:51.430Z,4.42
2023-04-27T19:48:18.264Z,4.19
2023-04-27T19:50:44.992Z,4.05
2023-04-27T19:53:13.031Z,4.03
2023-04-27T19:55:40.537Z,3.04
2023-04-27T19:58:07.220Z,3.97
2023-04-27T20:00:34.324Z,3.80
2023-04-27T20:03:01.312Z,4.18
2023-04-27T20:05:28.490Z,3.06
2023-04-27T20:07:55.223Z,3.32
2023-04-27T20:10:22.131Z,3.85
2023-04-27T20:12:56.634Z,3.09
2023-04-27T20:15:24.593Z,2.26
2023-04-27T20:17:52.313Z,3.24
2023-04-27T20:20:19.346Z,3.36
2023-04-27T20:22:46.102Z,3.03
2023-04-27T20:25:14.822Z,2.87
2023-04-27T20:27:41.895Z,1.83
2023-04-27T20:30:09.177Z,2.24
2023-04-27T20:32:36.355Z,2.35
2023-04-27T20:35:04.750Z,2.43
2023-04-27T20:37:32.346Z,3.06
2023-04-27T20:39:59.559Z,2.19
2023-04-27T20:42:26.205Z,1.95
2023-04-27T20:44:54.848Z,1.73
2023-04-27T20:47:22.052Z,2.69
2023-04-27T20:49:48.871Z,2.61
2023-04-27T20:52:15.779Z,2.26
2023-04-27T20:54:42.430Z,2.84
2023-04-27T20:57:13.473Z,1.06
2023-04-27T20:59:41.279Z,2.57
2023-04-27T21:02:07.887Z,2.28
2023-04-27T21:04:34.666Z,2.63
2023-04-27T21:07:01.599Z,2.52
2023-04-27T21:09:28.491Z,2.55
2023-04-27T21:11:55.281Z,2.09
2023-04-27T21:14:22.006Z,2.50
2023-04-27T21:16:48.779Z,0.39
2023-04-27T21:19:16.654Z,1.65
2023-04-27T21:21:43.275Z,2.27
2023-04-27T21:24:09.872Z,2.50
2023-04-27T21:26:36.740Z,2.07
2023-04-27T21:29:05.605Z,2.11
2023-04-27T21:31:33.235Z,1.98
2023-04-27T21:34:00.166Z,1.86
2023-04-27T21:36:26.852Z,1.80
2023-04-27T21:38:53.541Z,1.19
2023-04-27T21:41:20.635Z,0.79
2023-04-27T21:43:47.275Z,2.11
2023-04-27T21:46:13.949Z,2.17
2023-04-27T21:48:40.572Z,1.83
2023-04-27T21:51:07.193Z,1.47
2023-04-27T21:53:33.857Z,2.00
2023-04-27T21:56:00.413Z,1.27
2023-04-27T21:58:27.097Z,0.82
2023-04-27T22:00:53.765Z,1.75
2023-04-27T22:03:21.817Z,1.01
2023-04-27T22:05:52.932Z,1.05
2023-04-27T22:08:19.789Z,1.34
2023-04-27T22:10:47.329Z,0.12
2023-04-27T22:15:43.466Z,1.57
2023-04-27T22:18:10.156Z,1.28
2023-04-27T22:20:37.290Z,-0.36
2023-04-27T22:23:03.914Z,0.95
2023-04-27T22:25:30.632Z,-0.43
2023-04-27T22:27:57.310Z,1.56
2023-04-27T22:30:23.977Z,1.58
2023-04-27T22:32:50.653Z,1.53
2023-04-27T22:37:49.015Z,1.46
2023-04-27T22:40:15.666Z,0.62
2023-04-27T22:42:42.456Z,1.52
2023-04-27T22:45:09.690Z,0.97
2023-04-27T22:47:36.360Z,0.92
2023-04-27T22:50:03.414Z,1.36
2023-04-27T22:52:33.741Z,1.29
2023-04-27T22:55:02.169Z,1.37
2023-04-27T22:57:29.237Z,1.00
2023-04-27T22:59:56.483Z,1.21
2023-04-27T23:02:23.532Z,1.14
2023-04-27T23:04:50.280Z,1.47
2023-04-27T23:07:19.960Z,1.49
2023-04-27T23:09:48.187Z,0.05
2023-04-27T23:12:14.886Z,0.25
2023-04-27T23:14:42.445Z,1.16
2023-04-27T23:17:10.207Z,1.34
2023-04-27T23:19:37.021Z,0.65
2023-04-27T23:22:03.650Z,0.01
2023-04-27T23:24:30.298Z,0.93
2023-04-27T23:26:57.593Z,0.35
2023-04-27T23:29:24.434Z,-0.60
2023-04-27T23:31:51.127Z,0.41
2023-04-27T23:34:18.139Z,0.41
2023-04-27T23:36:44.901Z,0.91
2023-04-27T23:39:11.715Z,1.25
2023-04-27T23:41:38.548Z,0.87
2023-04-27T23:44:05.224Z,1.24
2023-04-27T23:46:31.914Z,0.73
2023-04-27T23:48:58.638Z,-0.62
2023-04-27T23:51:25.242Z,0.65
2023-04-27T23:53:51.923Z,0.13
2023-04-27T23:56:19.051Z,0.64
2023-04-27T23:58:45.779Z,0.60
